Time;durP1;ratioP1;P1;durP2;ratioP2;P2;SDS_P1;SDS_P2;PMS_P1;PMS_P2;Temp;Humidity;BMP_temperature;BMP_pressure;BME280_temperature;BME280_humidity;BME280_pressure;Samples;Min_cycle;Max_cycle;Signal;HPM_P1;HPM_P2
2023/04/08 00:00:00;;;;;;;7.68;6.28;;;;;;;;;;5009775;28;20507;-65
2023/04/08 00:02:26;;;;;;;8.95;6.78;;;;;;;;;;5009924;28;20455;-65
2023/04/08 00:04:53;;;;;;;9.85;7.47;;;;;;;;;;5014535;28;20057;-65
2023/04/08 00:07:20;;;;;;;8.30;6.68;;;;;;;;;;5029388;28;20044;-66
2023/04/08 00:09:46;;;;;;;9.65;7.10;;;;;;;;;;5022082;28;20033;-65
2023/04/08 00:12:13;;;;;;;15.23;7.70;;;;;;;;;;5014631;28;20038;-66
2023/04/08 00:14:40;;;;;;;11.55;6.07;;;;;;;;;;5015633;28;20029;-65
2023/04/08 00:17:07;;;;;;;8.40;6.53;;;;;;;;;;5031472;28;20040;-66
2023/04/08 00:19:33;;;;;;;8.00;6.03;;;;;;;;;;5032931;28;20018;-66
2023/04/08 00:22:00;;;;;;;7.55;6.32;;;;;;;;;;5009912;28;20425;-66
2023/04/08 00:24:27;;;;;;;7.65;5.47;;;;;;;;;;5009197;28;20054;-67
2023/04/08 00:26:55;;;;;;;7.40;6.15;;;;;;;;;;5009340;28;20026;-66
2023/04/08 00:29:21;;;;;;;13.77;6.22;;;;;;;;;;5009534;28;20030;-66
2023/04/08 00:31:48;;;;;;;9.50;6.07;;;;;;;;;;5012595;28;20065;-64
2023/04/08 00:34:15;;;;;;;8.13;5.63;;;;;;;;;;5013890;28;20034;-64
2023/04/08 00:36:42;;;;;;;9.75;6.60;;;;;;;;;;5013867;28;20028;-64
2023/04/08 00:39:08;;;;;;;10.57;6.72;;;;;;;;;;5019455;28;20026;-67
2023/04/08 00:41:35;;;;;;;13.07;7.60;;;;;;;;;;5033707;28;20077;-65
2023/04/08 00:44:02;;;;;;;23.67;5.93;;;;;;;;;;5030678;28;20755;-67
2023/04/08 00:46:31;;;;;;;9.38;6.75;;;;;;;;;;5028549;28;20033;-65
2023/04/08 00:48:58;;;;;;;10.98;6.32;;;;;;;;;;5028504;28;20049;-65
2023/04/08 00:51:25;;;;;;;6.90;5.75;;;;;;;;;;5028205;28;20037;-65
2023/04/08 00:53:51;;;;;;;11.10;5.90;;;;;;;;;;5030912;28;20056;-66
2023/04/08 00:56:18;;;;;;;7.40;4.32;;;;;;;;;;5033035;28;20040;-66
2023/04/08 00:58:45;;;;;;;10.75;6.45;;;;;;;;;;5032704;28;20053;-66
2023/04/08 01:01:37;;;;;;;9.82;6.85;;;;;;;;;;5033161;28;20029;-66
2023/04/08 01:04:13;;;;;;;10.70;6.93;;;;;;;;;;5017813;28;20041;-66
2023/04/08 01:06:50;;;;;;;11.02;6.50;;;;;;;;;;5013088;28;20034;-66
2023/04/08 01:09:19;;;;;;;8.93;6.25;;;;;;;;;;5010582;28;20446;-66
2023/04/08 01:11:46;;;;;;;9.10;6.22;;;;;;;;;;5027318;28;20396;-66
2023/04/08 01:14:16;;;;;;;9.70;5.97;;;;;;;;;;5028152;28;20025;-66
2023/04/08 01:16:44;;;;;;;11.00;7.55;;;;;;;;;;5017703;28;20373;-66
2023/04/08 01:19:15;;;;;;;14.55;6.25;;;;;;;;;;5014595;28;20422;-67
2023/04/08 01:21:45;;;;;;;9.23;7.28;;;;;;;;;;5017082;28;20091;-66
2023/04/08 01:24:26;;;;;;;9.00;6.03;;;;;;;;;;5033500;28;20468;-66
2023/04/08 01:26:53;;;;;;;8.32;6.20;;;;;;;;;;5020941;28;20065;-66
2023/04/08 01:29:20;;;;;;;9.00;6.50;;;;;;;;;;5022716;28;20342;-66
2023/04/08 01:31:47;;;;;;;10.60;6.23;;;;;;;;;;5008211;28;20033;-66
2023/04/08 01:34:15;;;;;;;8.83;6.03;;;;;;;;;;5009376;28;20053;-66
2023/04/08 01:36:44;;;;;;;10.00;6.43;;;;;;;;;;5008143;28;20025;-66
2023/04/08 01:39:11;;;;;;;8.33;6.27;;;;;;;;;;5011919;28;20030;-66
2023/04/08 01:41:38;;;;;;;7.43;5.93;;;;;;;;;;5013360;28;20026;-66
2023/04/08 01:44:05;;;;;;;7.70;4.90;;;;;;;;;;5012965;28;20033;-66
2023/04/08 01:46:32;;;;;;;10.33;6.97;;;;;;;;;;5029023;28;20113;-66
2023/04/08 01:48:59;;;;;;;6.70;5.60;;;;;;;;;;5033044;28;20025;-66
2023/04/08 01:51:27;;;;;;;6.83;5.37;;;;;;;;;;5019869;28;20029;-66
2023/04/08 01:53:53;;;;;;;15.60;6.00;;;;;;;;;;5009009;28;20037;-66
2023/04/08 01:56:22;;;;;;;6.97;4.93;;;;;;;;;;5007717;28;20116;-66
2023/04/08 01:58:52;;;;;;;9.30;6.80;;;;;;;;;;5007847;28;20350;-66
2023/04/08 02:01:21;;;;;;;8.77;5.90;;;;;;;;;;5014053;28;20018;-65
2023/04/08 02:03:50;;;;;;;7.63;5.33;;;;;;;;;;5029048;28;20381;-66
2023/04/08 02:06:17;;;;;;;23.30;5.67;;;;;;;;;;5017397;28;20365;-65
2023/04/08 02:08:44;;;;;;;11.13;5.60;;;;;;;;;;5032774;28;20365;-66
2023/04/08 02:11:11;;;;;;;9.80;5.40;;;;;;;;;;5031207;28;20030;-66
2023/04/08 02:13:38;;;;;;;10.47;5.67;;;;;;;;;;5030549;28;20435;-66
2023/04/08 02:16:18;;;;;;;7.63;5.13;;;;;;;;;;5020357;28;20075;-66
2023/04/08 02:18:49;;;;;;;12.90;6.20;;;;;;;;;;5007359;28;20029;-66
2023/04/08 02:21:18;;;;;;;15.43;5.87;;;;;;;;;;5018510;28;20464;-66
2023/04/08 02:23:50;;;;;;;11.73;6.07;;;;;;;;;;5028470;28;20025;-66
2023/04/08 02:26:18;;;;;;;13.90;5.73;;;;;;;;;;5019699;28;20029;-66
2023/04/08 02:28:45;;;;;;;8.50;5.10;;;;;;;;;;5012476;28;20018;-65
2023/04/08 02:31:12;;;;;;;7.63;5.87;;;;;;;;;;5016769;28;20030;-66
2023/04/08 02:33:40;;;;;;;9.77;6.40;;;;;;;;;;5012559;28;20041;-65
2023/04/08 02:36:07;;;;;;;17.20;6.73;;;;;;;;;;5010472;28;20034;-66
2023/04/08 02:38:34;;;;;;;8.27;5.53;;;;;;;;;;5007588;28;20026;-66
2023/04/08 02:41:01;;;;;;;18.97;6.43;;;;;;;;;;5007809;28;20022;-65
2023/04/08 02:43:31;;;;;;;16.07;6.70;;;;;;;;;;5007515;28;20026;-65
2023/04/08 02:46:02;;;;;;;6.87;6.00;;;;;;;;;;5007697;28;20092;-64
2023/04/08 02:48:29;;;;;;;11.00;7.27;;;;;;;;;;5012597;28;20045;-66
2023/04/08 02:50:56;;;;;;;13.67;8.87;;;;;;;;;;5012176;28;20046;-64
2023/04/08 02:53:23;;;;;;;15.33;7.87;;;;;;;;;;5012332;28;20025;-65
2023/04/08 02:55:50;;;;;;;9.37;5.30;;;;;;;;;;5012441;28;20033;-66
2023/04/08 02:58:17;;;;;;;9.83;7.27;;;;;;;;;;4994181;28;20393;-64
2023/04/08 03:00:43;;;;;;;10.57;6.90;;;;;;;;;;5009314;28;20821;-64
2023/04/08 03:03:10;;;;;;;13.00;8.20;;;;;;;;;;5017236;28;20026;-66
2023/04/08 03:05:37;;;;;;;14.43;8.57;;;;;;;;;;5006838;28;20036;-66
2023/04/08 03:08:05;;;;;;;11.37;7.47;;;;;;;;;;5006912;28;20045;-65
2023/04/08 03:10:32;;;;;;;10.57;7.33;;;;;;;;;;5011940;28;20042;-65
2023/04/08 03:12:58;;;;;;;17.13;9.30;;;;;;;;;;5012138;28;20022;-65
2023/04/08 03:15:26;;;;;;;14.83;9.83;;;;;;;;;;5013130;28;20033;-65
2023/04/08 03:17:52;;;;;;;21.97;8.27;;;;;;;;;;5028664;28;20037;-65
2023/04/08 03:20:19;;;;;;;9.63;6.87;;;;;;;;;;5031474;28;20021;-65
2023/04/08 03:22:49;;;;;;;13.97;6.47;;;;;;;;;;5029320;28;20025;-66
2023/04/08 03:25:15;;;;;;;10.73;5.97;;;;;;;;;;5028998;28;20032;-65
2023/04/08 03:27:42;;;;;;;9.57;6.07;;;;;;;;;;5010485;28;20026;-65
2023/04/08 03:30:09;;;;;;;11.73;6.33;;;;;;;;;;5010477;28;20080;-65
2023/04/08 03:32:35;;;;;;;28.63;7.80;;;;;;;;;;5014816;28;20057;-65
2023/04/08 03:35:02;;;;;;;13.53;7.07;;;;;;;;;;5015583;28;20057;-65
2023/04/08 03:37:29;;;;;;;9.27;7.03;;;;;;;;;;5015696;28;20361;-65
2023/04/08 03:39:56;;;;;;;8.30;6.77;;;;;;;;;;5015447;28;20057;-65
2023/04/08 03:42:22;;;;;;;11.57;7.23;;;;;;;;;;5015521;28;20400;-65
2023/04/08 03:44:49;;;;;;;11.57;6.43;;;;;;;;;;5010985;28;20064;-65
2023/04/08 03:47:16;;;;;;;11.10;6.37;;;;;;;;;;5010275;28;20030;-65
2023/04/08 03:49:42;;;;;;;14.40;7.50;;;;;;;;;;5010186;28;20084;-65
2023/04/08 03:52:09;;;;;;;7.50;5.87;;;;;;;;;;5010032;28;20048;-65
2023/04/08 03:54:36;;;;;;;11.17;7.43;;;;;;;;;;5013362;28;20104;-65
2023/04/08 03:57:02;;;;;;;14.33;7.67;;;;;;;;;;5034793;28;20400;-65
2023/04/08 03:59:29;;;;;;;10.83;6.83;;;;;;;;;;5035073;28;20022;-65
2023/04/08 04:01:56;;;;;;;10.23;6.40;;;;;;;;;;5022682;28;20037;-66
2023/04/08 04:04:23;;;;;;;12.43;7.20;;;;;;;;;;5030255;28;20026;-65
2023/04/08 04:06:49;;;;;;;9.93;7.03;;;;;;;;;;5013147;28;20062;-66
2023/04/08 04:09:16;;;;;;;13.80;6.03;;;;;;;;;;5009977;28;20038;-65
2023/04/08 04:11:43;;;;;;;9.07;6.97;;;;;;;;;;5009782;28;20033;-66
2023/04/08 04:14:10;;;;;;;10.20;6.47;;;;;;;;;;5009974;28;20057;-65
2023/04/08 04:16:36;;;;;;;10.30;7.27;;;;;;;;;;5012150;28;20504;-65
2023/04/08 04:19:03;;;;;;;10.97;7.13;;;;;;;;;;5030703;28;20380;-64
2023/04/08 04:21:30;;;;;;;13.67;7.37;;;;;;;;;;5034267;28;20108;-64
2023/04/08 04:23:56;;;;;;;7.97;6.37;;;;;;;;;;5034354;28;20040;-65
2023/04/08 04:26:23;;;;;;;11.00;7.53;;;;;;;;;;5017967;28;20211;-65
2023/04/08 04:28:50;;;;;;;10.23;6.87;;;;;;;;;;5012842;28;20071;-64
2023/04/08 04:31:25;;;;;;;7.63;6.43;;;;;;;;;;5010342;28;20159;-64
2023/04/08 04:33:52;;;;;;;7.77;6.13;;;;;;;;;;5016530;28;20032;-65
2023/04/08 04:36:18;;;;;;;13.27;6.10;;;;;;;;;;5029205;28;20030;-66
2023/04/08 04:38:45;;;;;;;9.17;6.53;;;;;;;;;;5029615;28;20112;-65
2023/04/08 04:41:12;;;;;;;9.17;6.97;;;;;;;;;;5033779;28;20028;-65
2023/04/08 04:43:40;;;;;;;12.93;7.20;;;;;;;;;;5033386;28;20032;-66
2023/04/08 04:46:07;;;;;;;8.00;6.20;;;;;;;;;;5034104;28;20100;-66
2023/04/08 04:48:37;;;;;;;10.10;8.30;;;;;;;;;;5033978;28;20033;-65
2023/04/08 04:51:06;;;;;;;16.43;8.53;;;;;;;;;;5032572;28;20044;-66
2023/04/08 04:53:33;;;;;;;11.07;6.40;;;;;;;;;;5028676;28;20048;-65
2023/04/08 04:56:00;;;;;;;10.33;5.30;;;;;;;;;;5028995;28;20104;-64
2023/04/08 04:58:27;;;;;;;8.23;6.37;;;;;;;;;;5028522;28;20029;-65
2023/04/08 05:00:54;;;;;;;11.83;7.87;;;;;;;;;;5015255;28;20038;-65
2023/04/08 05:03:21;;;;;;;7.67;6.40;;;;;;;;;;5019802;28;20485;-66
2023/04/08 05:05:51;;;;;;;6.03;4.90;;;;;;;;;;5014194;28;20354;-65
2023/04/08 05:08:18;;;;;;;13.93;8.80;;;;;;;;;;5013889;28;20452;-66
2023/04/08 05:10:44;;;;;;;10.43;7.53;;;;;;;;;;5013374;28;20065;-65
2023/04/08 05:13:11;;;;;;;11.73;8.03;;;;;;;;;;5013705;28;20056;-65
2023/04/08 05:15:38;;;;;;;11.93;7.73;;;;;;;;;;5008820;28;20413;-65
2023/04/08 05:18:04;;;;;;;8.50;6.03;;;;;;;;;;5015477;28;20030;-65
2023/04/08 05:20:31;;;;;;;7.43;6.13;;;;;;;;;;5028231;28;20017;-65
2023/04/08 05:22:58;;;;;;;8.17;6.23;;;;;;;;;;5027571;28;20022;-66
2023/04/08 05:25:25;;;;;;;12.07;8.17;;;;;;;;;;5032174;28;20024;-65
2023/04/08 05:27:54;;;;;;;9.57;7.97;;;;;;;;;;5022936;28;20061;-65
2023/04/08 05:30:21;;;;;;;8.17;5.63;;;;;;;;;;5016918;28;20540;-65
2023/04/08 05:32:48;;;;;;;9.23;7.53;;;;;;;;;;5032966;28;20049;-65
2023/04/08 05:35:14;;;;;;;20.43;7.67;;;;;;;;;;5031139;28;20026;-65
2023/04/08 05:37:41;;;;;;;11.17;5.60;;;;;;;;;;5009321;28;20105;-65
2023/04/08 05:40:08;;;;;;;8.67;6.30;;;;;;;;;;5017877;28;20028;-65
2023/04/08 05:42:35;;;;;;;14.03;7.77;;;;;;;;;;5027614;28;20030;-65
2023/04/08 05:45:01;;;;;;;12.03;7.50;;;;;;;;;;5026923;28;20068;-65
2023/04/08 05:47:28;;;;;;;10.27;5.80;;;;;;;;;;5030746;28;20022;-65
2023/04/08 05:49:55;;;;;;;9.17;6.60;;;;;;;;;;5032873;28;20022;-65
2023/04/08 05:52:22;;;;;;;10.73;7.77;;;;;;;;;;5032492;28;20531;-65
2023/04/08 05:54:48;;;;;;;9.73;6.73;;;;;;;;;;5032778;28;20032;-66
2023/04/08 05:57:15;;;;;;;8.63;5.60;;;;;;;;;;5032496;28;20484;-64
2023/04/08 05:59:42;;;;;;;10.10;6.97;;;;;;;;;;5029498;28;20032;-65
2023/04/08 06:02:09;;;;;;;10.63;7.50;;;;;;;;;;5010455;28;20080;-65
2023/04/08 06:04:35;;;;;;;10.03;6.27;;;;;;;;;;5024347;28;20026;-65
2023/04/08 06:07:03;;;;;;;13.60;7.33;;;;;;;;;;5017832;28;20026;-65
2023/04/08 06:09:30;;;;;;;11.53;7.80;;;;;;;;;;5009692;28;20030;-64
2023/04/08 06:11:56;;;;;;;6.77;4.87;;;;;;;;;;5022732;28;20068;-65
2023/04/08 06:14:23;;;;;;;8.97;7.13;;;;;;;;;;5027388;28;20079;-65
2023/04/08 06:16:51;;;;;;;12.47;8.37;;;;;;;;;;5021699;28;20032;-64
2023/04/08 06:19:18;;;;;;;15.43;10.03;;;;;;;;;;5028403;28;20021;-66
2023/04/08 06:21:46;;;;;;;11.20;8.67;;;;;;;;;;5029905;28;20034;-65
2023/04/08 06:24:12;;;;;;;13.20;7.77;;;;;;;;;;5024977;28;20043;-65
2023/04/08 06:26:39;;;;;;;11.20;7.80;;;;;;;;;;5027084;28;20030;-65
2023/04/08 06:29:06;;;;;;;9.43;7.60;;;;;;;;;;5010749;28;20593;-64
2023/04/08 06:31:33;;;;;;;11.43;8.67;;;;;;;;;;5010347;28;20437;-64
2023/04/08 06:34:00;;;;;;;8.13;6.23;;;;;;;;;;5032055;28;20551;-63
2023/04/08 06:36:27;;;;;;;11.60;8.27;;;;;;;;;;5032142;28;20524;-65
2023/04/08 06:38:54;;;;;;;11.13;7.10;;;;;;;;;;5031515;28;20037;-64
2023/04/08 06:41:20;;;;;;;11.10;8.07;;;;;;;;;;5021986;28;20026;-64
2023/04/08 06:43:47;;;;;;;10.23;6.17;;;;;;;;;;5011378;28;20073;-63
2023/04/08 06:46:14;;;;;;;10.57;7.73;;;;;;;;;;5007450;28;20072;-64
2023/04/08 06:48:41;;;;;;;15.70;10.13;;;;;;;;;;5019880;28;20068;-64
2023/04/08 06:51:07;;;;;;;10.87;8.43;;;;;;;;;;5011037;28;20057;-65
2023/04/08 06:53:34;;;;;;;9.97;7.63;;;;;;;;;;5007224;28;20034;-65
2023/04/08 06:56:01;;;;;;;12.83;8.63;;;;;;;;;;5011965;28;20406;-64
2023/04/08 06:58:28;;;;;;;7.17;5.37;;;;;;;;;;5018292;28;20513;-65
2023/04/08 07:00:55;;;;;;;9.63;7.63;;;;;;;;;;5035626;28;20017;-65
2023/04/08 07:03:22;;;;;;;10.10;6.90;;;;;;;;;;5035349;28;20468;-64
2023/04/08 07:05:49;;;;;;;21.47;8.23;;;;;;;;;;5016012;28;20021;-64
2023/04/08 07:08:15;;;;;;;9.77;7.07;;;;;;;;;;5010692;28;20405;-65
2023/04/08 07:10:42;;;;;;;12.63;7.93;;;;;;;;;;5029949;28;20030;-64
2023/04/08 07:13:09;;;;;;;10.93;7.20;;;;;;;;;;5029105;28;20026;-64
2023/04/08 07:15:36;;;;;;;9.37;6.73;;;;;;;;;;5014097;28;20555;-64
2023/04/08 07:18:03;;;;;;;9.87;7.63;;;;;;;;;;5015100;28;20018;-64
2023/04/08 07:20:30;;;;;;;8.13;6.77;;;;;;;;;;5016855;28;20465;-65
2023/04/08 07:22:56;;;;;;;10.37;8.20;;;;;;;;;;5015887;28;20022;-64
2023/04/08 07:25:23;;;;;;;12.13;7.37;;;;;;;;;;5015897;28;20473;-64
2023/04/08 07:27:51;;;;;;;9.03;6.97;;;;;;;;;;5015679;28;20540;-64
2023/04/08 07:30:18;;;;;;;7.30;4.87;;;;;;;;;;5010781;28;20387;-64
2023/04/08 07:32:45;;;;;;;14.77;7.93;;;;;;;;;;5010455;28;20026;-64
2023/04/08 07:35:12;;;;;;;16.90;8.63;;;;;;;;;;5027708;28;20037;-64
2023/04/08 07:37:38;;;;;;;10.13;8.47;;;;;;;;;;5029574;28;20448;-64
2023/04/08 07:40:05;;;;;;;12.63;6.13;;;;;;;;;;5033254;28;20037;-64
2023/04/08 07:42:32;;;;;;;10.37;7.83;;;;;;;;;;5035012;28;20037;-64
2023/04/08 07:44:59;;;;;;;9.23;6.43;;;;;;;;;;5020206;28;20026;-64
2023/04/08 07:47:26;;;;;;;8.47;7.03;;;;;;;;;;5015189;28;20030;-64
2023/04/08 07:49:53;;;;;;;13.37;9.17;;;;;;;;;;5015159;28;20044;-64
2023/04/08 07:52:20;;;;;;;15.70;8.53;;;;;;;;;;5011344;28;20083;-64
2023/04/08 07:54:47;;;;;;;20.47;7.07;;;;;;;;;;5009435;28;20037;-65
2023/04/08 07:57:13;;;;;;;8.87;7.00;;;;;;;;;;5009920;28;20105;-65
2023/04/08 07:59:40;;;;;;;31.30;7.00;;;;;;;;;;5009988;28;20034;-64
2023/04/08 08:02:07;;;;;;;11.90;7.37;;;;;;;;;;5012519;28;20022;-64
2023/04/08 08:04:33;;;;;;;7.40;6.20;;;;;;;;;;5034435;28;20087;-64
2023/04/08 08:07:00;;;;;;;18.67;8.90;;;;;;;;;;5034721;28;20035;-64
2023/04/08 08:09:27;;;;;;;9.37;5.73;;;;;;;;;;5034509;28;20025;-64
2023/04/08 08:11:53;;;;;;;9.40;7.57;;;;;;;;;;5032812;28;20112;-64
2023/04/08 08:14:20;;;;;;;8.37;6.50;;;;;;;;;;5023233;28;20032;-64
2023/04/08 08:16:48;;;;;;;8.67;6.00;;;;;;;;;;5009676;28;20156;-64
2023/04/08 08:19:17;;;;;;;7.43;5.33;;;;;;;;;;5015222;28;20053;-64
2023/04/08 08:21:44;;;;;;;11.37;6.93;;;;;;;;;;5029271;28;20029;-65
2023/04/08 08:24:11;;;;;;;9.20;6.53;;;;;;;;;;5029196;28;20059;-64
2023/04/08 08:26:38;;;;;;;8.47;6.63;;;;;;;;;;5032093;28;20076;-64
2023/04/08 08:29:07;;;;;;;16.13;8.07;;;;;;;;;;5034107;28;20037;-64
2023/04/08 08:31:34;;;;;;;16.67;9.83;;;;;;;;;;5034150;28;20037;-64
2023/04/08 08:34:01;;;;;;;13.60;10.10;;;;;;;;;;5018863;28;20041;-64
2023/04/08 08:36:28;;;;;;;8.77;7.03;;;;;;;;;;5012066;28;20036;-65
2023/04/08 08:38:55;;;;;;;13.83;8.17;;;;;;;;;;5008880;28;20026;-64
2023/04/08 08:41:21;;;;;;;11.30;7.33;;;;;;;;;;5009501;28;20041;-64
2023/04/08 08:43:48;;;;;;;9.87;6.43;;;;;;;;;;5024778;28;20087;-64
2023/04/08 08:46:17;;;;;;;8.53;5.77;;;;;;;;;;5030108;28;20075;-64
2023/04/08 08:48:45;;;;;;;8.73;7.10;;;;;;;;;;5022331;28;20022;-64
2023/04/08 08:51:12;;;;;;;10.47;6.83;;;;;;;;;;5014088;28;20072;-64
2023/04/08 08:53:43;;;;;;;12.73;8.70;;;;;;;;;;5014293;28;20053;-64
2023/04/08 08:56:11;;;;;;;11.83;8.90;;;;;;;;;;5013929;28;20030;-64
2023/04/08 08:58:38;;;;;;;10.53;7.60;;;;;;;;;;5012328;28;20108;-65
2023/04/08 09:01:24;;;;;;;13.17;9.70;;;;;;;;;;5008631;28;20034;-64
2023/04/08 09:04:06;;;;;;;11.40;7.70;;;;;;;;;;5021595;28;20052;-64
2023/04/08 09:06:33;;;;;;;18.70;9.27;;;;;;;;;;5011992;28;20033;-64
2023/04/08 09:09:01;;;;;;;12.67;7.87;;;;;;;;;;5010567;28;20037;-64
2023/04/08 09:11:28;;;;;;;9.70;7.33;;;;;;;;;;5013665;28;20034;-64
2023/04/08 09:13:55;;;;;;;13.50;7.70;;;;;;;;;;5013318;28;20116;-64
2023/04/08 09:16:22;;;;;;;17.20;8.77;;;;;;;;;;5024085;28;20026;-64
2023/04/08 09:18:49;;;;;;;16.17;9.50;;;;;;;;;;5033083;28;20026;-64
2023/04/08 09:21:17;;;;;;;8.97;7.53;;;;;;;;;;5030457;28;20025;-64
2023/04/08 09:23:47;;;;;;;10.33;7.97;;;;;;;;;;5028061;28;20511;-64
2023/04/08 09:26:18;;;;;;;9.63;7.37;;;;;;;;;;5027574;28;20036;-64
2023/04/08 09:28:57;;;;;;;11.20;6.70;;;;;;;;;;5027548;28;20143;-64
2023/04/08 09:31:28;;;;;;;7.77;6.70;;;;;;;;;;5029429;28;20057;-64
2023/04/08 09:33:56;;;;;;;9.77;7.27;;;;;;;;;;5019213;28;20026;-64
2023/04/08 09:36:23;;;;;;;12.40;8.03;;;;;;;;;;5018098;28;20033;-64
2023/04/08 09:38:50;;;;;;;15.83;10.63;;;;;;;;;;5013437;28;20024;-64
2023/04/08 09:41:19;;;;;;;11.57;8.23;;;;;;;;;;5013449;28;20030;-64
2023/04/08 09:43:57;;;;;;;13.47;7.63;;;;;;;;;;5010233;28;20449;-64
2023/04/08 09:46:33;;;;;;;10.67;9.03;;;;;;;;;;5007474;28;20049;-64
2023/04/08 09:49:03;;;;;;;14.13;9.40;;;;;;;;;;5007762;28;20527;-64
2023/04/08 09:51:33;;;;;;;17.20;10.73;;;;;;;;;;5023000;28;20434;-64
2023/04/08 09:54:02;;;;;;;6.67;5.60;;;;;;;;;;5010275;28;20405;-64
2023/04/08 09:56:35;;;;;;;7.67;6.60;;;;;;;;;;5019738;28;20029;-64
2023/04/08 09:59:11;;;;;;;11.30;8.73;;;;;;;;;;5032759;28;20026;-64
2023/04/08 10:01:39;;;;;;;8.33;6.83;;;;;;;;;;5032219;28;20489;-64
2023/04/08 10:04:10;;;;;;;10.87;7.20;;;;;;;;;;5016736;28;20073;-65
2023/04/08 10:06:37;;;;;;;7.50;6.67;;;;;;;;;;5012953;28;20030;-64
2023/04/08 10:09:03;;;;;;;11.23;7.10;;;;;;;;;;5027164;28;20116;-65
2023/04/08 10:11:30;;;;;;;10.20;8.17;;;;;;;;;;5026606;28;20041;-65
2023/04/08 10:13:57;;;;;;;21.90;7.10;;;;;;;;;;5026753;28;20061;-64
2023/04/08 10:16:28;;;;;;;9.53;6.87;;;;;;;;;;5019476;28;20033;-64
2023/04/08 10:18:55;;;;;;;7.10;5.70;;;;;;;;;;5012734;28;20033;-65
2023/04/08 10:21:38;;;;;;;11.43;7.33;;;;;;;;;;5026459;28;20068;-65
2023/04/08 10:24:11;;;;;;;11.80;8.77;;;;;;;;;;5032148;28;20018;-65
2023/04/08 10:26:38;;;;;;;11.03;8.87;;;;;;;;;;5032025;28;20092;-64
2023/04/08 10:29:23;;;;;;;12.10;7.90;;;;;;;;;;5028893;28;20025;-63
2023/04/08 10:31:50;;;;;;;11.05;8.15;;;;;;;;;;5010711;28;20046;-63
2023/04/08 10:34:17;;;;;;;12.00;8.03;;;;;;;;;;5006989;28;20481;-64
2023/04/08 10:36:45;;;;;;;10.63;8.03;;;;;;;;;;5007250;28;20655;-64
2023/04/08 10:39:13;;;;;;;7.90;6.37;;;;;;;;;;5010125;28;20385;-65
2023/04/08 10:41:44;;;;;;;9.63;7.27;;;;;;;;;;5012440;28;20124;-65
2023/04/08 10:44:17;;;;;;;9.30;6.77;;;;;;;;;;5012481;28;20448;-65
2023/04/08 10:46:45;;;;;;;9.67;8.07;;;;;;;;;;5012157;28;20033;-65
2023/04/08 10:49:12;;;;;;;11.67;9.27;;;;;;;;;;5012092;28;20026;-65
2023/04/08 10:51:40;;;;;;;10.90;7.73;;;;;;;;;;5008504;28;20034;-65
2023/04/08 10:54:11;;;;;;;11.50;8.83;;;;;;;;;;5007007;28;20140;-65
2023/04/08 10:56:47;;;;;;;15.50;8.83;;;;;;;;;;5006650;28;20049;-63
2023/04/08 10:59:15;;;;;;;18.37;8.43;;;;;;;;;;5006843;28;20069;-65
2023/04/08 11:01:43;;;;;;;8.10;6.87;;;;;;;;;;5024176;28;20026;-65
2023/04/08 11:04:19;;;;;;;14.50;9.73;;;;;;;;;;5031946;28;20108;-64
2023/04/08 11:06:46;;;;;;;15.00;9.60;;;;;;;;;;5013334;28;20038;-63
2023/04/08 11:09:13;;;;;;;17.27;9.47;;;;;;;;;;5012222;28;20061;-64
2023/04/08 11:11:44;;;;;;;9.07;7.33;;;;;;;;;;5012138;28;20044;-64
2023/04/08 11:14:10;;;;;;;9.43;7.30;;;;;;;;;;5009011;28;20026;-65
2023/04/08 11:16:38;;;;;;;10.10;7.47;;;;;;;;;;5025909;28;20025;-65
2023/04/08 11:19:05;;;;;;;8.77;6.63;;;;;;;;;;5026567;28;20512;-64
2023/04/08 11:21:32;;;;;;;11.23;8.43;;;;;;;;;;5026052;28;20037;-65
2023/04/08 11:23:59;;;;;;;7.37;6.20;;;;;;;;;;5029750;28;20021;-64
2023/04/08 11:26:26;;;;;;;5.60;4.67;;;;;;;;;;5031385;28;20033;-65
2023/04/08 11:28:54;;;;;;;16.27;9.83;;;;;;;;;;5031458;28;20030;-65
2023/04/08 11:31:22;;;;;;;9.57;7.20;;;;;;;;;;5019931;28;20081;-64
2023/04/08 11:33:49;;;;;;;12.53;7.43;;;;;;;;;;5011624;28;20029;-65
2023/04/08 11:36:17;;;;;;;9.23;7.63;;;;;;;;;;5008345;28;20044;-65
2023/04/08 11:38:46;;;;;;;10.53;8.77;;;;;;;;;;5006784;28;20018;-65
2023/04/08 11:41:13;;;;;;;12.67;9.03;;;;;;;;;;5006333;28;20383;-65
2023/04/08 11:43:40;;;;;;;10.93;8.67;;;;;;;;;;5020994;28;20044;-65
2023/04/08 11:46:11;;;;;;;9.67;6.77;;;;;;;;;;5013000;28;20037;-65
2023/04/08 11:48:38;;;;;;;11.67;7.83;;;;;;;;;;5015269;28;20369;-65
2023/04/08 11:51:08;;;;;;;14.80;8.27;;;;;;;;;;5025554;28;20037;-65
2023/04/08 11:53:36;;;;;;;12.33;8.83;;;;;;;;;;5034892;28;20037;-65
2023/04/08 11:56:22;;;;;;;12.90;10.03;;;;;;;;;;5034727;28;20499;-64
2023/04/08 11:58:49;;;;;;;12.80;7.80;;;;;;;;;;5030922;28;20297;-65
2023/04/08 12:01:16;;;;;;;19.13;10.90;;;;;;;;;;5028941;28;20036;-67
2023/04/08 12:03:55;;;;;;;21.77;13.07;;;;;;;;;;5029295;28;20030;-65
2023/04/08 12:06:22;;;;;;;19.07;10.40;;;;;;;;;;5019174;28;20116;-65
2023/04/08 12:08:49;;;;;;;14.93;11.43;;;;;;;;;;5012778;28;20631;-65
2023/04/08 12:11:16;;;;;;;20.97;13.67;;;;;;;;;;5014909;28;20501;-65
2023/04/08 12:13:42;;;;;;;14.00;10.77;;;;;;;;;;5014889;28;20037;-64
2023/04/08 12:16:09;;;;;;;18.93;10.20;;;;;;;;;;5029353;28;20381;-64
2023/04/08 12:18:36;;;;;;;26.93;13.93;;;;;;;;;;5017630;28;20477;-65
2023/04/08 12:21:03;;;;;;;12.83;10.33;;;;;;;;;;5029432;28;20568;-65
2023/04/08 12:23:29;;;;;;;11.53;8.40;;;;;;;;;;5029235;28;20051;-64
2023/04/08 12:25:56;;;;;;;11.27;7.83;;;;;;;;;;5028262;28;20029;-65
2023/04/08 12:28:23;;;;;;;8.50;5.87;;;;;;;;;;5029126;28;20030;-64
2023/04/08 12:30:50;;;;;;;12.87;9.60;;;;;;;;;;5031186;28;20033;-65
2023/04/08 12:33:17;;;;;;;17.73;11.37;;;;;;;;;;5033938;28;20034;-65
2023/04/08 12:35:43;;;;;;;13.93;7.60;;;;;;;;;;5015469;28;20033;-65
2023/04/08 12:38:10;;;;;;;23.37;10.63;;;;;;;;;;5014415;28;20025;-65
2023/04/08 12:40:37;;;;;;;20.40;10.50;;;;;;;;;;5014234;28;20080;-64
2023/04/08 12:43:03;;;;;;;12.03;10.33;;;;;;;;;;5011576;28;20049;-64
2023/04/08 12:45:31;;;;;;;43.37;13.60;;;;;;;;;;5009017;28;20120;-65
2023/04/08 12:47:57;;;;;;;25.50;14.20;;;;;;;;;;5008695;28;20026;-65
2023/04/08 12:50:24;;;;;;;18.87;12.47;;;;;;;;;;5008795;28;20528;-65
2023/04/08 12:52:51;;;;;;;15.30;10.90;;;;;;;;;;5010081;28;20025;-65
2023/04/08 12:55:18;;;;;;;19.13;10.50;;;;;;;;;;5013108;28;20468;-65
2023/04/08 12:57:45;;;;;;;13.73;10.03;;;;;;;;;;5013931;28;20092;-65
2023/04/08 13:00:12;;;;;;;15.03;12.57;;;;;;;;;;5014040;28;20037;-65
2023/04/08 13:02:40;;;;;;;22.00;12.27;;;;;;;;;;5016881;28;20022;-65
2023/04/08 13:05:07;;;;;;;15.23;10.53;;;;;;;;;;5019382;28;20036;-65
2023/04/08 13:07:34;;;;;;;24.07;11.77;;;;;;;;;;5008516;28;20030;-65
2023/04/08 13:10:02;;;;;;;17.57;12.60;;;;;;;;;;5008003;28;20061;-66
2023/04/08 13:12:29;;;;;;;13.67;11.40;;;;;;;;;;5024528;28;20037;-65
2023/04/08 13:14:56;;;;;;;15.93;12.60;;;;;;;;;;5029116;28;20837;-65
2023/04/08 13:17:22;;;;;;;14.67;12.13;;;;;;;;;;5020674;28;20026;-64
2023/04/08 13:19:50;;;;;;;17.47;10.93;;;;;;;;;;5013640;28;20026;-65
2023/04/08 13:22:16;;;;;;;14.80;10.93;;;;;;;;;;5013396;28;20038;-65
2023/04/08 13:24:43;;;;;;;18.83;10.73;;;;;;;;;;5013447;28;20025;-65
2023/04/08 13:27:10;;;;;;;16.13;10.53;;;;;;;;;;5012145;28;20022;-65
2023/04/08 13:29:36;;;;;;;11.60;10.03;;;;;;;;;;5007698;28;20473;-64
2023/04/08 13:32:03;;;;;;;23.57;10.80;;;;;;;;;;5007879;28;20493;-64
2023/04/08 13:34:30;;;;;;;12.53;10.20;;;;;;;;;;5014374;28;20044;-65
2023/04/08 13:36:56;;;;;;;13.23;11.17;;;;;;;;;;5013798;28;20030;-65
2023/04/08 13:39:23;;;;;;;17.53;11.80;;;;;;;;;;5027729;28;20025;-65
2023/04/08 13:41:51;;;;;;;17.17;14.73;;;;;;;;;;5032415;28;20025;-65
2023/04/08 13:44:17;;;;;;;23.37;16.07;;;;;;;;;;5032580;28;20555;-65
2023/04/08 13:46:45;;;;;;;17.87;13.13;;;;;;;;;;5031512;28;20033;-65
2023/04/08 13:49:12;;;;;;;26.90;13.27;;;;;;;;;;5032097;28;20373;-65
2023/04/08 13:51:39;;;;;;;20.53;13.70;;;;;;;;;;5027067;28;20043;-65
2023/04/08 13:54:05;;;;;;;16.60;13.50;;;;;;;;;;5014672;28;20036;-65
2023/04/08 13:56:32;;;;;;;14.77;11.23;;;;;;;;;;5007721;28;20099;-66
2023/04/08 13:58:59;;;;;;;20.83;13.73;;;;;;;;;;5007700;28;20022;-65
2023/04/08 14:01:26;;;;;;;14.40;11.13;;;;;;;;;;5012419;28;20025;-65
2023/04/08 14:03:53;;;;;;;23.73;11.60;;;;;;;;;;5025054;28;20033;-65
2023/04/08 14:06:19;;;;;;;17.10;11.93;;;;;;;;;;5032033;28;20025;-65
2023/04/08 14:08:46;;;;;;;20.73;12.60;;;;;;;;;;5022296;28;20030;-63
2023/04/08 14:11:13;;;;;;;15.43;11.37;;;;;;;;;;5014071;28;20034;-64
2023/04/08 14:13:39;;;;;;;16.47;11.03;;;;;;;;;;5027375;28;20036;-64
2023/04/08 14:16:09;;;;;;;17.40;11.07;;;;;;;;;;5025312;28;20060;-65
2023/04/08 14:18:36;;;;;;;13.50;10.60;;;;;;;;;;5007896;28;20131;-65
2023/04/08 14:21:04;;;;;;;16.97;12.07;;;;;;;;;;5010637;28;20401;-65
2023/04/08 14:23:30;;;;;;;18.87;10.73;;;;;;;;;;5029249;28;20029;-65
2023/04/08 14:25:57;;;;;;;43.23;10.67;;;;;;;;;;5032121;28;20484;-65
2023/04/08 14:28:24;;;;;;;13.70;10.20;;;;;;;;;;5032454;28;20389;-65
2023/04/08 14:30:50;;;;;;;16.20;9.53;;;;;;;;;;5031802;28;20115;-65
2023/04/08 14:33:18;;;;;;;10.37;8.80;;;;;;;;;;5031707;28;20021;-65